Time;durP1;ratioP1;P1;durP2;ratioP2;P2;SDS_P1;SDS_P2;PMS_P1;PMS_P2;Temp;Humidity;BMP_temperature;BMP_pressure;BME280_temperature;BME280_humidity;BME280_pressure;Samples;Min_cycle;Max_cycle;Signal;HPM_P1;HPM_P2
2021/03/06 00:02:07;;;;;;;46.88;23.52;;;;;;;10.44;34.71;95051.63;4956462;28;20039;-83
2021/03/06 00:04:33;;;;;;;44.63;20.30;;;;;;;10.42;34.40;95038.06;4939708;29;20046;-84
2021/03/06 00:06:58;;;;;;;46.05;19.85;;;;;;;10.43;34.29;95044.84;4940569;28;20039;-84
2021/03/06 00:09:26;;;;;;;45.55;16.65;;;;;;;10.46;33.98;95049.59;4955672;29;20047;-84
2021/03/06 00:11:52;;;;;;;32.38;14.93;;;;;;;10.41;33.46;95052.88;4940529;28;20042;-83
2021/03/06 00:14:17;;;;;;;52.75;18.98;;;;;;;10.39;34.26;95044.47;4940505;29;20051;-82
2021/03/06 00:16:43;;;;;;;19.77;10.63;;;;;;;10.44;33.76;95046.44;4955704;29;20027;-83
2021/03/06 00:19:08;;;;;;;41.95;17.80;;;;;;;10.48;34.52;95047.56;4940250;29;20039;-84
2021/03/06 00:21:34;;;;;;;29.38;13.00;;;;;;;10.50;34.27;95055.91;4938573;29;20027;-84
2021/03/06 00:24:00;;;;;;;28.50;12.52;;;;;;;10.52;34.21;95048.69;4915403;29;20163;-83
2021/03/06 00:26:25;;;;;;;18.00;9.63;;;;;;;10.56;34.05;95055.00;4959047;29;20031;-84
2021/03/06 00:28:51;;;;;;;21.65;10.45;;;;;;;10.61;34.09;95062.16;4980222;23;20054;-84
2021/03/06 00:31:16;;;;;;;24.67;10.18;;;;;;;10.66;34.61;95060.47;4969802;28;20030;-84
2021/03/06 00:33:42;;;;;;;26.83;10.77;;;;;;;10.68;34.27;95053.22;4946685;28;20063;-83
2021/03/06 00:36:08;;;;;;;17.25;10.23;;;;;;;10.63;34.61;95055.72;4935282;29;20028;-83
2021/03/06 00:38:33;;;;;;;16.75;10.15;;;;;;;10.66;35.07;95055.25;4932850;28;20079;-83
2021/03/06 00:40:59;;;;;;;24.27;11.93;;;;;;;10.72;35.32;95058.75;4921686;29;20064;-83
2021/03/06 00:43:24;;;;;;;21.65;11.02;;;;;;;10.72;36.13;95049.13;4934217;29;20039;-84
2021/03/06 00:45:50;;;;;;;20.70;12.10;;;;;;;10.71;36.33;95052.75;4916433;29;20188;-84
2021/03/06 00:48:15;;;;;;;27.42;12.15;;;;;;;10.73;36.48;95052.53;4896666;29;20032;-84
2021/03/06 00:50:41;;;;;;;20.98;11.65;;;;;;;10.78;36.22;95050.06;5124435;23;20095;-84
2021/03/06 00:53:06;;;;;;;23.27;11.63;;;;;;;10.77;36.25;95051.09;4975014;28;20035;-83
2021/03/06 00:55:31;;;;;;;16.95;10.80;;;;;;;10.80;36.29;95051.41;4967656;28;20117;-84
2021/03/06 00:57:57;;;;;;;24.73;11.98;;;;;;;10.84;36.56;95054.34;4937536;28;20106;-85
2021/03/06 01:00:22;;;;;;;22.63;11.38;;;;;;;10.88;35.88;95046.88;4921917;28;20045;-84
2021/03/06 01:02:51;;;;;;;19.05;10.70;;;;;;;10.92;36.69;95046.22;4967122;28;20042;-84
2021/03/06 01:05:16;;;;;;;27.38;12.15;;;;;;;10.89;36.30;95038.03;4920598;28;20057;-83
2021/03/06 01:07:42;;;;;;;25.35;12.73;;;;;;;10.86;36.63;95043.72;5036109;23;20043;-84
2021/03/06 01:10:16;;;;;;;32.03;12.70;;;;;;;10.80;36.97;95043.59;4929518;29;20028;-82
2021/03/06 01:12:41;;;;;;;36.53;13.30;;;;;;;10.79;37.01;95039.44;4981307;23;20053;-83
2021/03/06 01:15:07;;;;;;;28.05;13.80;;;;;;;10.85;37.36;95042.13;4967035;28;20035;-83
2021/03/06 01:17:33;;;;;;;29.92;14.63;;;;;;;10.83;37.86;95037.16;4946960;29;20047;-84
2021/03/06 01:19:58;;;;;;;28.13;12.90;;;;;;;10.82;38.23;95038.19;4940857;29;20027;-84
2021/03/06 01:22:24;;;;;;;28.95;14.38;;;;;;;10.79;37.74;95036.81;4957238;28;20047;-83
2021/03/06 01:24:49;;;;;;;26.42;13.75;;;;;;;10.79;37.83;95042.03;4940562;29;20064;-83
2021/03/06 01:27:15;;;;;;;27.55;14.50;;;;;;;10.81;38.18;95034.78;4955547;29;20503;-83
2021/03/06 01:29:40;;;;;;;31.05;13.60;;;;;;;10.80;38.14;95027.22;4955715;29;20019;-84
2021/03/06 01:32:06;;;;;;;31.17;14.35;;;;;;;10.79;38.19;95033.44;4955846;29;20512;-84
2021/03/06 01:34:32;;;;;;;27.33;14.30;;;;;;;10.69;38.54;95038.41;4940120;29;20045;-84
2021/03/06 01:36:57;;;;;;;25.40;13.60;;;;;;;10.53;39.01;95037.25;4955282;23;20055;-84
2021/03/06 01:39:23;;;;;;;26.67;12.60;;;;;;;10.44;38.75;95030.84;4939614;29;20038;-84
2021/03/06 01:41:49;;;;;;;23.75;12.52;;;;;;;10.50;38.57;95045.53;4960077;28;20102;-84
2021/03/06 01:44:15;;;;;;;36.60;13.95;;;;;;;10.44;39.09;95036.03;4912238;29;20590;-83
2021/03/06 01:46:41;;;;;;;24.45;12.30;;;;;;;10.45;39.46;95037.63;4940169;29;20404;-84
2021/03/06 01:49:06;;;;;;;22.55;12.98;;;;;;;10.41;40.03;95041.66;4959115;29;20452;-84
2021/03/06 01:51:32;;;;;;;25.92;12.32;;;;;;;10.39;39.63;95038.50;4942927;29;20043;-83
2021/03/06 01:53:57;;;;;;;21.67;13.52;;;;;;;10.34;39.54;95040.97;4962474;28;20043;-83
2021/03/06 01:56:23;;;;;;;41.00;18.92;;;;;;;10.28;40.10;95049.69;4952736;28;20046;-84
2021/03/06 01:58:48;;;;;;;31.10;15.55;;;;;;;10.22;40.11;95038.34;4970638;23;20054;-84
2021/03/06 02:01:13;;;;;;;22.40;13.48;;;;;;;10.14;40.50;95047.25;4952572;29;20031;-85
2021/03/06 02:03:39;;;;;;;28.48;12.98;;;;;;;10.15;40.09;95048.84;4943847;23;20039;-84
2021/03/06 02:06:05;;;;;;;26.63;13.20;;;;;;;10.11;40.15;95039.91;4954608;28;20071;-84
2021/03/06 02:11:05;;;;;;;24.52;13.40;;;;;;;10.04;40.61;95052.19;3299721;26;20135;-83
2021/03/06 02:18:58;;;;;;;29.98;16.10;;;;;;;9.97;41.02;95051.50;4995884;23;20066;-83
2021/03/06 02:21:42;;;;;;;31.42;15.27;;;;;;;9.91;41.41;95052.38;4970007;28;20039;-84
2021/03/06 02:24:15;;;;;;;27.98;15.05;;;;;;;9.88;41.22;95043.22;5446619;23;20794;-83
2021/03/06 02:27:16;;;;;;;;;;;;;;;9.84;41.53;95049.09;4932566;28;20053;-83
2021/03/06 02:29:43;;;;;;;22.10;13.60;;;;;;;9.81;41.73;95046.94;4996091;23;19932;-82
2021/03/06 02:32:11;;;;;;;22.90;12.35;;;;;;;9.80;41.81;95055.75;4974439;28;20086;-82
2021/03/06 02:34:38;;;;;;;22.77;13.88;;;;;;;9.72;41.88;95048.25;4957030;28;20130;-83
2021/03/06 02:37:06;;;;;;;38.28;13.35;;;;;;;9.73;41.62;95049.81;4934136;28;20039;-83
2021/03/06 02:39:32;;;;;;;26.48;12.70;;;;;;;9.79;42.03;95046.38;4925160;28;20563;-82
2021/03/06 02:41:57;;;;;;;23.40;12.98;;;;;;;9.76;41.94;95058.00;4941869;28;20034;-82
2021/03/06 02:44:23;;;;;;;24.92;12.02;;;;;;;9.71;42.19;95057.84;4925525;28;20110;-82
2021/03/06 02:46:49;;;;;;;23.60;12.43;;;;;;;9.72;42.73;95058.63;4957846;28;20078;-83
2021/03/06 02:49:14;;;;;;;20.70;12.77;;;;;;;9.68;42.49;95057.50;4941721;28;20026;-83
2021/03/06 02:51:40;;;;;;;19.33;12.65;;;;;;;9.69;42.56;95059.06;4924545;28;20222;-83
2021/03/06 02:54:06;;;;;;;23.73;12.68;;;;;;;9.65;42.60;95063.13;4974264;28;20065;-83
2021/03/06 02:56:33;;;;;;;21.52;12.48;;;;;;;9.53;43.03;95079.44;4957063;28;20066;-83
2021/03/06 02:59:39;;;;;;;20.20;11.52;;;;;;;9.53;43.21;95079.44;4941674;28;20037;-85
2021/03/06 03:02:43;;;;;;;25.05;13.25;;;;;;;9.43;43.43;95076.53;4967297;23;20050;-84
2021/03/06 03:05:37;;;;;;;22.83;13.13;;;;;;;9.44;43.29;95079.97;4955097;28;20063;-85
2021/03/06 03:08:02;;;;;;;23.20;12.63;;;;;;;9.42;43.26;95082.75;4954904;29;20123;-84
2021/03/06 03:10:29;;;;;;;19.65;12.27;;;;;;;9.39;43.45;95085.78;4954510;29;20067;-85
2021/03/06 03:13:07;;;;;;;19.98;12.63;;;;;;;9.31;43.32;95092.06;4937333;29;20046;-84
2021/03/06 03:15:40;;;;;;;22.42;12.93;;;;;;;9.33;43.51;95091.84;4921679;29;20050;-85
2021/03/06 03:18:06;;;;;;;27.58;12.88;;;;;;;9.33;43.02;95102.25;5007399;23;20108;-84
2021/03/06 03:23:30;;;;;;;18.98;12.18;;;;;;;9.11;43.68;95108.84;5005194;23;20431;-82
2021/03/06 03:25:56;;;;;;;23.58;12.70;;;;;;;8.94;44.16;95106.81;4938561;29;20047;-82
2021/03/06 03:28:22;;;;;;;22.95;12.55;;;;;;;8.83;44.15;95112.72;4904787;29;20498;-83
2021/03/06 03:30:47;;;;;;;21.77;12.38;;;;;;;8.81;44.22;95108.75;4917025;29;20123;-83
2021/03/06 03:33:13;;;;;;;21.05;12.15;;;;;;;8.76;44.56;95111.94;4921139;29;20031;-83
2021/03/06 03:35:40;;;;;;;23.13;13.10;;;;;;;8.79;44.22;95114.16;4920727;29;20519;-84
2021/03/06 03:38:05;;;;;;;25.27;15.02;;;;;;;8.75;44.33;95115.56;4937633;29;20031;-83
2021/03/06 03:40:31;;;;;;;24.83;15.45;;;;;;;8.79;44.48;95116.75;4917910;29;20404;-83
2021/03/06 03:42:57;;;;;;;25.92;14.07;;;;;;;8.77;44.84;95123.13;4922273;29;20043;-84
2021/03/06 03:45:23;;;;;;;20.13;13.00;;;;;;;8.76;44.38;95121.53;4906826;29;20066;-83
2021/03/06 03:47:48;;;;;;;26.45;13.27;;;;;;;8.77;44.77;95123.91;5014686;23;20051;-84
2021/03/06 03:50:16;;;;;;;25.67;12.93;;;;;;;8.81;44.98;95127.69;4943413;29;20036;-84
2021/03/06 03:52:45;;;;;;;32.78;13.73;;;;;;;8.84;44.83;95140.22;4944634;29;20050;-85
2021/03/06 03:55:11;;;;;;;20.02;12.82;;;;;;;8.94;45.43;95132.75;4943941;29;20038;-84
2021/03/06 03:57:37;;;;;;;32.42;14.70;;;;;;;9.00;45.10;95139.69;4943723;29;20036;-84
2021/03/06 04:03:01;;;;;;;49.03;22.33;;;;;;;9.07;45.01;95147.38;4896432;29;20067;-84
2021/03/06 04:05:26;;;;;;;43.00;18.58;;;;;;;9.12;45.43;95152.75;4865675;29;20033;-84
2021/03/06 04:07:52;;;;;;;40.13;20.20;;;;;;;9.13;45.79;95153.53;4881087;29;20067;-85
2021/03/06 04:13:35;;;;;;;31.13;17.08;;;;;;;9.03;46.61;95141.84;1945753;23;20042;-84
2021/03/06 04:16:04;;;;;;;26.70;14.27;;;;;;;8.97;46.43;95147.91;4995034;28;20513;-84
2021/03/06 04:18:30;;;;;;;28.60;14.38;;;;;;;9.06;47.00;95163.16;4963862;28;20041;-85
2021/03/06 04:20:55;;;;;;;24.35;14.25;;;;;;;8.89;47.17;95142.97;4996823;28;20084;-84
2021/03/06 04:23:22;;;;;;;25.33;14.95;;;;;;;9.00;47.44;95160.44;5073194;23;20514;-85
2021/03/06 04:25:47;;;;;;;23.85;15.32;;;;;;;9.03;47.47;95162.59;4962851;28;20039;-85
2021/03/06 04:28:12;;;;;;;24.17;15.55;;;;;;;9.02;47.58;95163.59;4962038;28;20050;-85
2021/03/06 04:30:38;;;;;;;34.58;18.00;;;;;;;9.03;47.72;95161.81;4957306;28;20490;-84
2021/03/06 04:33:03;;;;;;;31.70;19.17;;;;;;;9.01;47.91;95162.03;4973855;28;20054;-84
2021/03/06 04:35:29;;;;;;;28.17;16.02;;;;;;;8.96;48.22;95161.88;4958001;28;20487;-84
2021/03/06 04:37:54;;;;;;;34.00;14.25;;;;;;;8.91;48.78;95169.47;4943202;28;20042;-84
2021/03/06 04:40:20;;;;;;;29.40;16.27;;;;;;;8.83;49.27;95161.97;4927244;28;20027;-84
2021/03/06 04:42:45;;;;;;;30.65;16.20;;;;;;;8.82;49.35;95169.97;4957754;28;20086;-83
2021/03/06 04:45:11;;;;;;;36.42;15.80;;;;;;;8.81;49.53;95176.97;4945446;28;20055;-82
2021/03/06 04:47:41;;;;;;;27.13;14.35;;;;;;;8.69;49.76;95176.03;4924556;28;20411;-82
2021/03/06 04:50:07;;;;;;;35.28;16.33;;;;;;;8.67;49.90;95180.66;4952690;28;20128;-82
2021/03/06 04:52:33;;;;;;;33.38;16.70;;;;;;;8.63;49.96;95174.31;4953706;28;20042;-83
2021/03/06 04:54:58;;;;;;;29.10;16.25;;;;;;;8.54;50.40;95176.34;4922945;28;20125;-82
2021/03/06 04:57:25;;;;;;;27.55;16.20;;;;;;;8.49;51.02;95183.97;4923392;28;20019;-82
2021/03/06 04:59:50;;;;;;;32.75;16.65;;;;;;;8.38;51.06;95182.03;4923303;28;20035;-83
2021/03/06 05:02:16;;;;;;;33.53;17.50;;;;;;;8.27;51.91;95173.06;5814827;23;20024;-83
2021/03/06 05:04:42;;;;;;;27.85;17.65;;;;;;;8.30;51.62;95180.47;4922857;29;20075;-82
2021/03/06 05:07:07;;;;;;;28.73;16.40;;;;;;;8.25;52.00;95193.22;4928037;29;20032;-83
2021/03/06 05:09:32;;;;;;;31.92;17.25;;;;;;;8.28;52.08;95203.16;4935638;29;20484;-84
2021/03/06 05:11:58;;;;;;;35.28;17.98;;;;;;;8.27;52.42;95214.53;4934880;29;20512;-84
2021/03/06 05:14:23;;;;;;;46.15;17.73;;;;;;;8.22;52.76;95219.53;4918140;29;20043;-84
2021/03/06 05:16:49;;;;;;;30.13;18.95;;;;;;;8.15;52.98;95228.38;4948898;23;20061;-84
2021/03/06 05:19:14;;;;;;;47.17;20.98;;;;;;;8.10;53.65;95236.72;4942883;29;20462;-84
2021/03/06 05:21:40;;;;;;;38.17;19.42;;;;;;;8.00;54.93;95257.91;4960609;23;20078;-83
2021/03/06 05:24:06;;;;;;;40.38;21.48;;;;;;;7.94;55.63;95250.13;4963098;28;20028;-83
2021/03/06 05:26:31;;;;;;;35.00;22.30;;;;;;;7.86;55.99;95268.50;4951095;23;20061;-85
2021/03/06 05:28:58;;;;;;;41.25;22.38;;;;;;;7.85;56.64;95261.72;4953899;29;20041;-84
2021/03/06 05:31:23;;;;;;;45.00;24.95;;;;;;;7.85;57.16;95274.69;4906876;29;20043;-83
2021/03/06 05:33:49;;;;;;;36.25;24.95;;;;;;;7.80;57.91;95272.69;5747336;23;20042;-81
2021/03/06 05:36:14;;;;;;;43.88;25.15;;;;;;;7.89;57.71;95265.50;4976658;28;20051;-84
2021/03/06 05:38:40;;;;;;;43.53;27.25;;;;;;;7.88;58.53;95277.66;4988070;28;20027;-83
2021/03/06 05:41:06;;;;;;;54.20;30.35;;;;;;;7.93;58.88;95277.03;4972183;28;20069;-81
2021/03/06 05:43:31;;;;;;;46.60;28.48;;;;;;;7.90;59.53;95283.41;4955149;28;20035;-83
2021/03/06 05:45:57;;;;;;;50.30;28.83;;;;;;;7.92;60.04;95285.81;4949746;28;20050;-83
2021/03/06 05:48:22;;;;;;;44.95;29.05;;;;;;;7.80;60.17;95294.19;4935457;28;20042;-82
2021/03/06 05:50:50;;;;;;;42.20;27.80;;;;;;;7.77;61.58;95304.16;4955376;28;20484;-82
2021/03/06 05:53:16;;;;;;;46.80;25.52;;;;;;;7.83;60.94;95298.19;4955339;28;20063;-81
2021/03/06 05:55:48;;;;;;;25.98;17.27;;;;;;;7.67;60.47;95321.91;4952359;28;20042;-82
2021/03/06 05:58:14;;;;;;;21.80;15.98;;;;;;;7.35;61.08;95315.75;4953419;28;20043;-83
2021/03/06 06:00:41;;;;;;;24.40;16.13;;;;;;;7.14;61.95;95327.84;4968271;28;20535;-84
2021/03/06 06:03:06;;;;;;;24.10;15.40;;;;;;;7.06;62.39;95343.56;4950827;28;20031;-84
2021/03/06 06:05:32;;;;;;;19.50;15.55;;;;;;;6.91;62.62;95346.31;4967669;28;20042;-83
2021/03/06 06:07:57;;;;;;;20.38;15.13;;;;;;;6.82;63.00;95338.94;4948488;28;20027;-83
2021/03/06 06:10:23;;;;;;;21.55;15.07;;;;;;;6.72;62.54;95357.41;4939258;28;20035;-83
2021/03/06 06:12:49;;;;;;;23.63;15.88;;;;;;;6.65;62.93;95376.44;4950993;28;20078;-83
2021/03/06 06:15:14;;;;;;;21.02;12.43;;;;;;;6.68;62.45;95373.50;4950963;28;20490;-84
2021/03/06 06:17:40;;;;;;;19.20;13.20;;;;;;;6.53;62.02;95384.78;4949320;28;20066;-84
2021/03/06 06:20:06;;;;;;;24.67;12.93;;;;;;;6.37;62.03;95395.44;4970890;28;20086;-84
2021/03/06 06:22:32;;;;;;;15.02;11.77;;;;;;;6.39;62.57;95403.78;4950149;28;20061;-84
2021/03/06 06:24:58;;;;;;;21.92;12.57;;;;;;;6.32;62.39;95408.09;4939556;28;20522;-84
2021/03/06 06:27:28;;;;;;;18.70;12.65;;;;;;;6.29;62.78;95413.66;4971164;28;20035;-84
2021/03/06 06:29:55;;;;;;;23.05;12.38;;;;;;;6.31;62.43;95427.16;4973141;28;20043;-84
2021/03/06 06:32:22;;;;;;;18.58;10.95;;;;;;;6.27;62.23;95431.91;4966544;28;20038;-85
2021/03/06 06:35:11;;;;;;;17.92;11.90;;;;;;;6.27;62.02;95441.44;4949698;28;20165;-84
2021/03/06 06:37:36;;;;;;;10.30;8.68;;;;;;;6.27;61.31;95457.75;4966014;28;20035;-85
2021/03/06 06:40:25;;;;;;;10.20;8.63;;;;;;;6.13;61.77;95455.25;4962406;28;20027;-85
2021/03/06 06:42:51;;;;;;;15.30;9.55;;;;;;;5.93;61.30;95470.59;4968540;28;20034;-82
2021/03/06 06:45:17;;;;;;;16.30;9.02;;;;;;;5.87;60.96;95479.06;4966291;28;20396;-83
2021/03/06 06:47:43;;;;;;;9.18;6.93;;;;;;;5.84;60.57;95480.22;4956226;28;20106;-82
2021/03/06 06:50:10;;;;;;;8.88;6.50;;;;;;;5.55;60.81;95493.28;4957011;28;20049;-82
2021/03/06 06:52:37;;;;;;;8.68;7.35;;;;;;;5.49;61.44;95497.34;4980346;28;20035;-82
2021/03/06 06:55:03;;;;;;;8.15;7.32;;;;;;;5.47;61.60;95501.09;4951617;28;20035;-81
2021/03/06 06:57:28;;;;;;;7.90;6.90;;;;;;;5.52;61.18;95511.66;4969795;28;20029;-81
2021/03/06 06:59:57;;;;;;;7.35;6.32;;;;;;;5.53;60.63;95510.69;4937011;28;20034;-82
2021/03/06 07:02:23;;;;;;;6.60;5.90;;;;;;;5.37;60.78;95516.91;4970302;28;20039;-82
2021/03/06 07:04:53;;;;;;;6.47;5.88;;;;;;;5.41;61.08;95508.59;4952056;28;20038;-82
2021/03/06 07:07:19;;;;;;;9.13;6.93;;;;;;;5.46;60.83;95525.31;4973488;28;20116;-82
2021/03/06 07:09:55;;;;;;;15.98;9.65;;;;;;;5.54;60.40;95536.31;4952390;28;20049;-82
2021/03/06 07:12:21;;;;;;;9.40;6.72;;;;;;;5.64;60.24;95530.84;4968245;28;20041;-83
2021/03/06 07:14:46;;;;;;;5.70;5.15;;;;;;;5.70;59.68;95540.47;4940491;28;20039;-82
2021/03/06 07:17:11;;;;;;;6.65;4.88;;;;;;;5.62;59.22;95556.84;4949529;28;20048;-82
2021/03/06 07:19:40;;;;;;;8.35;4.30;;;;;;;5.48;60.22;95549.13;4955345;28;20052;-80
2021/03/06 07:22:05;;;;;;;13.35;5.97;;;;;;;5.45;61.23;95570.13;4950249;28;20557;-81
2021/03/06 07:24:31;;;;;;;14.23;8.65;;;;;;;5.50;60.42;95572.97;4948962;28;20023;-82
2021/03/06 07:26:57;;;;;;;5.93;5.32;;;;;;;5.51;60.76;95577.13;4948226;28;20487;-81
2021/03/06 07:29:26;;;;;;;4.70;4.25;;;;;;;5.55;60.28;95586.13;4955369;28;20039;-82
2021/03/06 07:31:52;;;;;;;6.00;5.38;;;;;;;5.41;60.97;95580.81;4949604;28;20109;-81
2021/03/06 07:34:19;;;;;;;6.85;4.50;;;;;;;5.34;61.30;95579.13;4955628;28;20035;-82
2021/03/06 07:36:44;;;;;;;6.50;4.70;;;;;;;5.16;62.09;95596.75;4935848;28;20043;-82
2021/03/06 07:39:10;;;;;;;4.00;3.70;;;;;;;5.04;62.42;95606.69;4949036;28;20032;-82
2021/03/06 07:41:39;;;;;;;10.15;5.85;;;;;;;4.96;62.83;95609.38;4949085;28;20157;-81
2021/03/06 07:44:06;;;;;;;15.48;6.10;;;;;;;4.77;64.65;95592.66;4950699;28;20114;-81
2021/03/06 07:46:31;;;;;;;9.45;6.10;;;;;;;4.60;65.48;95607.47;4949497;28;20031;-81
2021/03/06 07:48:57;;;;;;;15.63;8.73;;;;;;;4.58;68.33;95614.59;4967121;28;20134;-82
2021/03/06 07:51:23;;;;;;;21.08;9.15;;;;;;;4.65;66.34;95607.75;4934463;28;20106;-81
2021/03/06 07:53:48;;;;;;;13.27;8.23;;;;;;;4.78;67.23;95610.53;5145159;23;21668;-81
2021/03/06 07:56:14;;;;;;;11.77;8.10;;;;;;;4.91;65.80;95609.13;4962847;28;20057;-80
2021/03/06 07:58:50;;;;;;;12.48;7.47;;;;;;;4.83;65.42;95612.56;4956476;28;20023;-79
2021/03/06 08:01:28;;;;;;;20.73;11.80;;;;;;;4.90;65.25;95615.25;4923700;28;20121;-80
2021/03/06 08:03:54;;;;;;;10.70;8.15;;;;;;;4.99;65.84;95609.03;4917618;28;20425;-82
2021/03/06 08:06:28;;;;;;;10.23;6.57;;;;;;;5.19;65.26;95622.97;4957767;28;20030;-84
2021/03/06 08:09:10;;;;;;;10.57;6.10;;;;;;;5.37;63.63;95615.69;4981250;23;20534;-84
2021/03/06 08:11:40;;;;;;;9.52;6.93;;;;;;;5.37;64.10;95620.84;4976928;28;20045;-83
2021/03/06 08:14:25;;;;;;;13.13;7.90;;;;;;;5.33;63.67;95624.75;4965418;28;20038;-82
2021/03/06 08:16:50;;;;;;;11.07;7.15;;;;;;;5.34;63.46;95635.84;4956115;28;20121;-85
2021/03/06 08:19:19;;;;;;;5.18;4.63;;;;;;;5.12;65.46;95640.13;4932698;28;20138;-84
2021/03/06 08:21:48;;;;;;;16.13;8.93;;;;;;;5.10;64.56;95647.25;4965040;28;20113;-82
2021/03/06 08:26:51;;;;;;;17.33;7.80;;;;;;;4.75;64.46;95646.94;4964984;28;20058;-81
2021/03/06 08:29:23;;;;;;;9.52;6.38;;;;;;;4.64;65.10;95655.09;4953175;28;20039;-82
2021/03/06 08:32:04;;;;;;;15.48;9.25;;;;;;;4.60;67.13;95658.19;4966314;28;20031;-80
2021/03/06 08:34:30;;;;;;;11.85;7.97;;;;;;;4.64;65.95;95667.97;4964377;28;20037;-82
2021/03/06 08:37:19;;;;;;;10.68;6.65;;;;;;;4.58;66.56;95675.59;4965712;28;20062;-82
2021/03/06 08:40:01;;;;;;;10.05;6.60;;;;;;;4.47;65.18;95674.22;4966655;28;20042;-81
2021/03/06 08:42:33;;;;;;;20.13;11.27;;;;;;;4.39;65.71;95674.25;4976889;28;20038;-81
2021/03/06 08:45:22;;;;;;;26.73;15.38;;;;;;;4.36;67.89;95679.75;4978987;28;20282;-81
2021/03/06 08:47:54;;;;;;;19.92;10.93;;;;;;;4.39;67.39;95687.97;4962578;28;20071;-80
2021/03/06 08:50:21;;;;;;;33.63;18.20;;;;;;;4.38;67.21;95682.97;4952639;28;20039;-85
2021/03/06 08:53:00;;;;;;;34.80;17.48;;;;;;;4.38;66.64;95695.84;4964631;28;20049;-80
2021/03/06 08:55:27;;;;;;;20.48;9.90;;;;;;;4.39;64.74;95698.28;5082028;23;20047;-79
2021/03/06 09:00:40;;;;;;;17.27;8.65;;;;;;;4.24;65.34;95705.13;5148757;23;20061;-79
2021/03/06 09:03:32;;;;;;;14.95;9.88;;;;;;;4.26;64.66;95707.53;4969717;28;20027;-80
2021/03/06 09:05:58;;;;;;;19.20;12.48;;;;;;;4.22;66.37;95715.56;5208992;23;20086;-80
2021/03/06 09:08:25;;;;;;;18.20;10.80;;;;;;;4.27;65.79;95714.28;4961925;28;20046;-79
2021/03/06 09:10:52;;;;;;;16.05;10.45;;;;;;;4.27;67.57;95719.44;4953606;29;20031;-81
2021/03/06 09:13:21;;;;;;;14.00;8.98;;;;;;;4.27;65.39;95725.38;4932905;29;20081;-82
2021/03/06 09:15:54;;;;;;;20.38;12.05;;;;;;;4.26;66.56;95726.34;4960959;29;20088;-82
2021/03/06 09:18:27;;;;;;;25.70;16.67;;;;;;;4.20;66.81;95730.38;4942385;29;20027;-82
2021/03/06 09:20:55;;;;;;;39.50;23.63;;;;;;;4.17;67.95;95730.72;4934276;29;20058;-82
2021/03/06 09:23:35;;;;;;;24.38;10.98;;;;;;;4.21;66.96;95731.97;4961498;28;20035;-82
2021/03/06 09:26:16;;;;;;;15.98;10.25;;;;;;;4.09;67.18;95733.34;4963198;28;20027;-82
2021/03/06 09:28:41;;;;;;;16.02;11.65;;;;;;;4.07;68.80;95730.16;4937014;29;20126;-82
2021/03/06 09:31:10;;;;;;;21.50;13.75;;;;;;;4.09;67.44;95733.34;4960128;29;20039;-82
2021/03/06 09:33:36;;;;;;;20.08;11.27;;;;;;;4.00;68.56;95731.78;4941755;29;20511;-82
2021/03/06 09:36:12;;;;;;;23.83;14.82;;;;;;;4.07;68.79;95739.66;4942164;29;20039;-82
2021/03/06 09:38:57;;;;;;;31.15;17.25;;;;;;;4.20;69.12;95743.25;4988257;23;20310;-82
2021/03/06 09:45:08;;;;;;;38.63;20.27;;;;;;;4.33;67.66;95721.31;4876156;29;20068;-82
2021/03/06 09:50:11;;;;;;;25.20;15.68;;;;;;;4.59;64.83;95724.38;5045925;23;20061;-79
2021/03/06 09:52:36;;;;;;;26.60;16.70;;;;;;;4.80;64.61;95742.56;4987775;28;20042;-79
2021/03/06 09:55:02;;;;;;;19.13;12.23;;;;;;;4.78;64.26;95739.34;4982401;23;20046;-77
2021/03/06 09:57:28;;;;;;;25.88;15.20;;;;;;;4.83;64.64;95746.56;4989072;23;20051;-79
2021/03/06 09:59:53;;;;;;;20.23;12.30;;;;;;;4.79;63.16;95745.31;4989940;28;20061;-82
2021/03/06 10:02:25;;;;;;;31.02;16.83;;;;;;;4.69;63.90;95750.69;4981655;28;20039;-84
2021/03/06 10:04:50;;;;;;;30.30;18.03;;;;;;;4.63;64.79;95753.94;4986432;28;20646;-83
2021/03/06 10:09:51;;;;;;;58.78;40.25;;;;;;;4.65;64.79;95754.56;5550348;23;20062;-84
2021/03/06 10:12:17;;;;;;;60.72;40.83;;;;;;;4.67;65.19;95757.78;4968103;28;20030;-82
2021/03/06 10:14:46;;;;;;;42.80;29.65;;;;;;;4.74;63.82;95761.28;4935001;29;20047;-83
2021/03/06 10:17:13;;;;;;;40.83;24.30;;;;;;;4.72;63.49;95760.66;4952232;28;20062;-81
2021/03/06 10:19:46;;;;;;;30.25;20.20;;;;;;;4.81;63.91;95758.81;4982121;28;20082;-80
2021/03/06 10:22:12;;;;;;;31.90;18.52;;;;;;;4.86;64.47;95763.44;4966808;28;20074;-84
2021/03/06 10:24:56;;;;;;;16.60;11.38;;;;;;;4.78;63.80;95759.97;4959650;29;20175;-83
2021/03/06 10:27:31;;;;;;;22.77;13.30;;;;;;;4.88;64.06;95758.91;5055316;23;20042;-81
2021/03/06 10:30:17;;;;;;;11.65;8.10;;;;;;;4.79;64.77;95756.41;4974718;28;20090;-84
2021/03/06 10:32:56;;;;;;;14.90;10.80;;;;;;;4.85;63.84;95765.22;5207804;23;20048;-83
2021/03/06 10:35:33;;;;;;;12.52;7.68;;;;;;;4.99;63.27;95759.31;4924135;29;20063;-83
2021/03/06 10:37:59;;;;;;;21.75;10.73;;;;;;;5.10;63.42;95760.69;4937390;29;20087;-83
2021/03/06 10:40:51;;;;;;;12.30;9.40;;;;;;;5.21;62.34;95765.44;4922869;29;20051;-83
2021/03/06 10:43:30;;;;;;;16.35;9.57;;;;;;;5.36;62.88;95763.66;4915047;29;20103;-85
2021/03/06 10:46:07;;;;;;;39.70;23.92;;;;;;;5.52;61.61;95756.72;4930830;29;20142;-82
2021/03/06 10:48:33;;;;;;;45.42;25.40;;;;;;;5.63;60.35;95751.13;4928798;29;20507;-81
2021/03/06 10:50:59;;;;;;;26.95;13.98;;;;;;;5.70;58.83;95744.31;4914987;29;20051;-84
2021/03/06 10:53:25;;;;;;;17.42;12.75;;;;;;;5.70;56.56;95747.69;4890577;29;20386;-84
2021/03/06 10:55:53;;;;;;;16.75;10.52;;;;;;;5.66;57.35;95748.19;4920148;29;20055;-83
2021/03/06 10:58:19;;;;;;;15.43;9.15;;;;;;;5.72;56.15;95747.50;4889234;29;20166;-85
2021/03/06 11:00:46;;;;;;;14.70;10.90;;;;;;;5.78;56.13;95746.78;4937719;29;20063;-85
2021/03/06 11:03:12;;;;;;;16.90;10.25;;;;;;;5.84;55.41;95738.31;4904844;29;20042;-85
2021/03/06 11:05:41;;;;;;;16.63;10.07;;;;;;;5.91;54.91;95744.41;4904125;29;20714;-84
2021/03/06 11:08:18;;;;;;;20.10;12.73;;;;;;;5.87;55.47;95735.41;4936399;29;20039;-84
2021/03/06 11:10:51;;;;;;;12.00;7.18;;;;;;;5.80;54.31;95726.75;4913173;29;20050;-83
2021/03/06 11:13:16;;;;;;;10.52;7.57;;;;;;;5.77;54.88;95726.31;4906314;29;20067;-84
2021/03/06 11:18:11;;;;;;;12.40;8.77;;;;;;;5.69;54.71;95712.53;5098569;23;20076;-83
2021/03/06 11:20:39;;;;;;;17.60;10.52;;;;;;;5.63;54.95;95707.28;5006562;23;20721;-82
2021/03/06 11:23:04;;;;;;;15.50;10.60;;;;;;;5.85;54.97;95714.09;4951804;29;20426;-83
2021/03/06 11:25:30;;;;;;;9.90;7.47;;;;;;;5.99;53.20;95710.72;4922251;29;20039;-84
2021/03/06 11:28:02;;;;;;;8.40;6.35;;;;;;;5.99;51.51;95708.16;4931174;29;20087;-84
2021/03/06 11:30:35;;;;;;;7.07;6.32;;;;;;;6.01;52.12;95723.44;4955245;29;20039;-84
2021/03/06 11:35:55;;;;;;;6.57;5.93;;;;;;;6.11;50.83;95710.28;5010618;23;20058;-83
2021/03/06 11:38:22;;;;;;;11.77;7.28;;;;;;;6.19;51.82;95707.59;4923730;29;20043;-84
2021/03/06 11:40:48;;;;;;;9.13;6.47;;;;;;;6.22;51.57;95707.22;4913233;29;20051;-83
2021/03/06 11:43:17;;;;;;;8.38;7.00;;;;;;;6.30;51.28;95709.69;4929982;29;20036;-80
2021/03/06 11:45:42;;;;;;;8.77;6.63;;;;;;;6.40;51.51;95709.41;4917572;29;20081;-83
2021/03/06 11:48:30;;;;;;;8.02;6.43;;;;;;;6.25;50.77;95697.31;4913798;29;20039;-83
2021/03/06 11:50:58;;;;;;;11.27;6.53;;;;;;;6.19;51.38;95689.53;4921465;29;20540;-86
2021/03/06 11:53:24;;;;;;;9.05;7.18;;;;;;;6.12;51.51;95696.38;4927422;29;20067;-83
2021/03/06 11:55:49;;;;;;;8.48;6.95;;;;;;;6.24;51.15;95692.34;4923084;29;20597;-83
2021/03/06 11:58:15;;;;;;;13.25;6.85;;;;;;;6.53;51.50;95692.25;4890170;29;20032;-84
2021/03/06 12:00:41;;;;;;;8.38;6.82;;;;;;;7.06;51.15;95690.09;4908294;29;20048;-83
2021/03/06 12:03:06;;;;;;;7.40;6.60;;;;;;;7.50;48.66;95681.22;4891349;29;20040;-83
2021/03/06 12:05:34;;;;;;;7.38;6.60;;;;;;;7.75;46.90;95687.50;4922814;29;20183;-82
2021/03/06 12:08:00;;;;;;;11.32;6.38;;;;;;;7.78;42.29;95689.69;4921910;29;20058;-82
2021/03/06 12:10:28;;;;;;;5.95;5.32;;;;;;;7.63;42.87;95683.06;4924888;29;20055;-82